Time;durP1;ratioP1;P1;durP2;ratioP2;P2;SDS_P1;SDS_P2;PMS_P1;PMS_P2;Temp;Humidity;BMP_temperature;BMP_pressure;BME280_temperature;BME280_humidity;BME280_pressure;Samples;Min_cycle;Max_cycle;Signal;HPM_P1;HPM_P2
2022/03/07 00:01:52;;;;;;;7.50;5.60;;;1.70;99.90;;;;;;5094585;28;20436;-84
2022/03/07 00:04:18;;;;;;;7.90;5.73;;;1.70;99.90;;;;;;5094515;28;20409;-85
2022/03/07 00:06:44;;;;;;;11.13;5.23;;;1.70;99.90;;;;;;5094090;28;20861;-85
2022/03/07 00:09:10;;;;;;;9.70;5.03;;;1.60;99.90;;;;;;5095767;28;20210;-85
2022/03/07 00:11:36;;;;;;;8.50;5.40;;;1.70;99.90;;;;;;5094212;28;20444;-85
2022/03/07 00:14:02;;;;;;;6.87;5.23;;;1.70;99.90;;;;;;5094276;28;20709;-85
2022/03/07 00:16:28;;;;;;;8.70;5.87;;;1.60;99.90;;;;;;5095073;28;20285;-84
2022/03/07 00:18:54;;;;;;;8.23;6.30;;;1.60;99.90;;;;;;5095503;28;20408;-85
2022/03/07 00:21:20;;;;;;;9.17;5.80;;;1.50;99.90;;;;;;5094117;28;20405;-85
2022/03/07 00:23:46;;;;;;;8.43;5.50;;;1.50;99.90;;;;;;5094934;28;20672;-84
2022/03/07 00:26:12;;;;;;;8.30;5.70;;;1.50;99.90;;;;;;5093992;28;20788;-85
2022/03/07 00:28:38;;;;;;;8.70;5.60;;;1.60;99.90;;;;;;5093598;28;20420;-85
2022/03/07 00:31:04;;;;;;;7.80;5.93;;;1.60;99.90;;;;;;5093782;28;20461;-85
2022/03/07 00:33:30;;;;;;;14.00;5.80;;;1.60;99.90;;;;;;5093739;28;20433;-85
2022/03/07 00:35:55;;;;;;;7.60;5.80;;;1.60;99.90;;;;;;5093578;28;20426;-86
2022/03/07 00:38:21;;;;;;;7.80;5.83;;;1.70;99.90;;;;;;5096035;28;20293;-86
2022/03/07 00:40:47;;;;;;;9.60;5.93;;;1.70;99.90;;;;;;5095239;28;20646;-85
2022/03/07 00:43:13;;;;;;;6.60;5.20;;;1.80;99.90;;;;;;5095131;28;20206;-85
2022/03/07 00:45:39;;;;;;;8.03;5.40;;;1.80;99.90;;;;;;5096660;28;20491;-85
2022/03/07 00:48:04;;;;;;;8.00;6.07;;;1.90;99.90;;;;;;5095187;28;20273;-85
2022/03/07 00:50:30;;;;;;;8.23;6.27;;;1.90;99.90;;;;;;5095017;28;20182;-85
2022/03/07 00:52:56;;;;;;;8.50;6.10;;;1.90;99.90;;;;;;5095259;28;20209;-86
2022/03/07 00:55:21;;;;;;;7.93;6.30;;;2.00;99.90;;;;;;5096370;28;20447;-85
2022/03/07 00:57:47;;;;;;;8.63;6.20;;;2.00;99.90;;;;;;5095725;28;20207;-85
2022/03/07 01:00:13;;;;;;;9.93;5.90;;;2.00;99.90;;;;;;5094456;28;20174;-85
2022/03/07 01:02:38;;;;;;;9.80;6.67;;;2.00;99.90;;;;;;5094902;28;20201;-85
2022/03/07 01:05:05;;;;;;;7.50;5.97;;;2.00;99.90;;;;;;5094530;28;20185;-86
2022/03/07 01:07:31;;;;;;;9.57;6.43;;;2.00;99.90;;;;;;5094465;28;20618;-85
2022/03/07 01:09:56;;;;;;;9.03;6.00;;;1.90;99.90;;;;;;5093382;28;20490;-84
2022/03/07 01:12:22;;;;;;;10.47;7.03;;;2.00;99.90;;;;;;5093017;28;20198;-85
2022/03/07 01:14:48;;;;;;;10.87;6.70;;;1.90;99.90;;;;;;5093081;28;20581;-84
2022/03/07 01:17:14;;;;;;;7.77;5.60;;;1.90;99.90;;;;;;5092562;28;20958;-84
2022/03/07 01:19:40;;;;;;;7.37;6.10;;;1.90;99.90;;;;;;5093207;28;20489;-85
2022/03/07 01:22:05;;;;;;;10.73;6.20;;;1.90;99.90;;;;;;5092622;28;20214;-84
2022/03/07 01:24:31;;;;;;;7.37;5.10;;;1.90;99.90;;;;;;5092772;28;20399;-85
2022/03/07 01:26:57;;;;;;;11.13;6.60;;;1.80;99.90;;;;;;5092547;28;20178;-83
2022/03/07 01:29:23;;;;;;;8.00;6.10;;;1.70;99.90;;;;;;5093988;28;20716;-82
2022/03/07 01:31:48;;;;;;;8.60;6.00;;;1.60;99.90;;;;;;5092646;28;20424;-84
2022/03/07 01:34:14;;;;;;;9.80;6.10;;;1.70;99.90;;;;;;5093834;28;20177;-86
2022/03/07 01:36:41;;;;;;;9.40;6.10;;;1.60;99.90;;;;;;5092047;28;20616;-84
2022/03/07 01:39:07;;;;;;;6.90;5.30;;;1.70;99.90;;;;;;5092198;28;20408;-85
2022/03/07 01:41:33;;;;;;;8.10;5.30;;;1.70;99.90;;;;;;5093756;28;20427;-85
2022/03/07 01:43:58;;;;;;;8.10;5.80;;;1.70;99.90;;;;;;5092545;28;20420;-84
2022/03/07 01:46:24;;;;;;;8.30;5.50;;;1.70;99.90;;;;;;5092013;28;20425;-84
2022/03/07 01:48:49;;;;;;;9.47;6.43;;;1.70;99.90;;;;;;5091504;28;20227;-83
2022/03/07 01:51:17;;;;;;;9.00;6.50;;;1.70;99.90;;;;;;5092348;28;20189;-85
2022/03/07 01:53:42;;;;;;;9.70;6.10;;;1.70;99.90;;;;;;5092004;28;20292;-84
2022/03/07 01:56:08;;;;;;;10.90;6.90;;;1.60;99.90;;;;;;5091910;28;20563;-84
2022/03/07 01:58:34;;;;;;;9.07;5.93;;;1.60;99.90;;;;;;5091937;28;20265;-83
2022/03/07 02:01:00;;;;;;;10.53;6.53;;;1.40;99.90;;;;;;5093312;28;20224;-82
2022/03/07 02:03:26;;;;;;;7.93;6.80;;;1.40;99.90;;;;;;5092921;28;20429;-84
2022/03/07 02:05:53;;;;;;;10.10;6.20;;;1.30;99.90;;;;;;5091710;28;20899;-84
2022/03/07 02:08:19;;;;;;;7.50;5.97;;;1.40;99.90;;;;;;5091523;28;20247;-83
2022/03/07 02:10:45;;;;;;;8.03;6.00;;;1.40;99.90;;;;;;5091729;28;20495;-83
2022/03/07 02:13:15;;;;;;;8.77;6.70;;;1.40;99.90;;;;;;5092081;28;20440;-84
2022/03/07 02:15:41;;;;;;;8.77;6.73;;;1.30;99.90;;;;;;5092782;28;20170;-84
2022/03/07 02:18:07;;;;;;;10.87;6.33;;;1.30;99.90;;;;;;5092433;28;20460;-84
2022/03/07 02:20:33;;;;;;;8.20;5.77;;;1.30;99.90;;;;;;5091524;28;20186;-84
2022/03/07 02:22:58;;;;;;;8.53;5.80;;;1.30;99.90;;;;;;5091324;28;20538;-83
2022/03/07 02:25:24;;;;;;;6.53;5.30;;;1.20;99.90;;;;;;5091482;28;20446;-84
2022/03/07 02:27:50;;;;;;;7.53;5.40;;;1.10;99.90;;;;;;5091018;28;20185;-84
2022/03/07 02:30:15;;;;;;;10.90;7.27;;;1.10;99.90;;;;;;5092583;28;20254;-84
2022/03/07 02:32:42;;;;;;;9.77;6.67;;;1.00;99.90;;;;;;5091243;28;20195;-84
2022/03/07 02:35:10;;;;;;;10.20;6.47;;;0.90;99.90;;;;;;5091338;28;20724;-84
2022/03/07 02:37:36;;;;;;;10.70;7.20;;;0.90;99.90;;;;;;5090743;28;20466;-84
2022/03/07 02:40:02;;;;;;;10.07;7.20;;;0.90;99.90;;;;;;5091121;28;20423;-84
2022/03/07 02:42:28;;;;;;;7.93;6.03;;;0.80;99.90;;;;;;5091114;28;20241;-83
2022/03/07 02:44:54;;;;;;;8.17;6.67;;;0.80;99.90;;;;;;5091279;28;20456;-83
2022/03/07 02:47:19;;;;;;;8.63;6.30;;;0.70;99.90;;;;;;5092038;28;20169;-84
2022/03/07 02:49:45;;;;;;;10.60;6.37;;;0.70;99.90;;;;;;5091074;28;20181;-84
2022/03/07 02:52:10;;;;;;;12.70;6.80;;;0.70;99.90;;;;;;5090974;28;20280;-84
2022/03/07 02:54:36;;;;;;;9.00;5.93;;;0.70;99.90;;;;;;5090975;28;20233;-84
2022/03/07 02:57:02;;;;;;;12.40;7.17;;;0.60;99.90;;;;;;5090518;28;20217;-84
2022/03/07 02:59:27;;;;;;;8.40;6.23;;;0.60;99.90;;;;;;5090892;28;20217;-84
2022/03/07 03:01:53;;;;;;;7.37;5.77;;;0.60;99.90;;;;;;5094377;28;20476;-84
2022/03/07 03:04:19;;;;;;;9.70;6.50;;;0.50;99.90;;;;;;5095155;28;20187;-85
2022/03/07 03:06:44;;;;;;;7.67;6.20;;;0.50;99.90;;;;;;5094505;28;20184;-84
2022/03/07 03:09:10;;;;;;;7.80;5.97;;;0.50;99.90;;;;;;5095019;28;20234;-84
2022/03/07 03:11:36;;;;;;;6.67;5.57;;;0.40;99.90;;;;;;5095069;28;20237;-83
2022/03/07 03:14:02;;;;;;;10.33;6.00;;;0.40;99.90;;;;;;5095200;28;20491;-84
2022/03/07 03:16:28;;;;;;;8.67;6.20;;;0.40;99.90;;;;;;5094459;28;20207;-83
2022/03/07 03:18:53;;;;;;;7.13;6.23;;;0.30;99.90;;;;;;5095103;28;20445;-84
2022/03/07 03:21:20;;;;;;;8.00;5.90;;;0.30;99.90;;;;;;5094788;28;20181;-84
2022/03/07 03:23:47;;;;;;;8.97;5.80;;;0.30;99.90;;;;;;5095936;28;20206;-83
2022/03/07 03:26:13;;;;;;;8.33;6.10;;;0.30;99.90;;;;;;5095845;28;20500;-84
2022/03/07 03:28:38;;;;;;;7.87;6.40;;;0.20;99.90;;;;;;5095802;28;20843;-84
2022/03/07 03:31:04;;;;;;;10.80;7.10;;;0.20;99.90;;;;;;5095965;28;20673;-82
2022/03/07 03:33:29;;;;;;;10.77;6.80;;;0.10;99.90;;;;;;5095804;28;20291;-84
2022/03/07 03:35:55;;;;;;;9.50;6.47;;;0.20;99.90;;;;;;5094594;28;20233;-84
2022/03/07 03:38:21;;;;;;;8.20;6.27;;;0.20;99.90;;;;;;5094297;28;20185;-83
2022/03/07 03:40:46;;;;;;;11.27;6.70;;;0.10;99.90;;;;;;5094600;28;20573;-83
2022/03/07 03:43:12;;;;;;;9.87;6.03;;;0.00;99.90;;;;;;5095599;28;20196;-83
2022/03/07 03:45:37;;;;;;;11.87;7.07;;;0.00;99.90;;;;;;5095534;28;20582;-84
2022/03/07 03:48:03;;;;;;;7.57;6.40;;;0.00;99.90;;;;;;5094163;28;20634;-84
2022/03/07 03:50:29;;;;;;;8.03;5.70;;;0.10;99.90;;;;;;5094376;28;20191;-83
2022/03/07 03:52:54;;;;;;;9.30;6.17;;;0.10;99.90;;;;;;5094113;28;20437;-84
2022/03/07 03:55:21;;;;;;;11.67;6.17;;;0.10;99.90;;;;;;5095446;28;20179;-84
2022/03/07 03:57:46;;;;;;;7.80;5.47;;;0.10;99.90;;;;;;5093833;28;20219;-83
2022/03/07 04:00:17;;;;;;;8.10;5.87;;;0.00;99.90;;;;;;5105077;28;20805;-84
2022/03/07 04:02:43;;;;;;;14.00;6.23;;;0.00;99.90;;;;;;5097932;28;20202;-85
2022/03/07 04:05:10;;;;;;;8.50;6.60;;;0.00;99.90;;;;;;5097555;28;20411;-86
2022/03/07 04:07:37;;;;;;;8.73;7.00;;;0.00;99.90;;;;;;5096613;28;20797;-85
2022/03/07 04:10:03;;;;;;;9.60;6.40;;;0.00;99.90;;;;;;5096571;28;20414;-84
2022/03/07 04:12:28;;;;;;;10.47;6.47;;;0.00;99.90;;;;;;5096306;28;20823;-85
2022/03/07 04:14:54;;;;;;;9.80;6.33;;;0.00;99.90;;;;;;5097878;28;20492;-84
2022/03/07 04:17:19;;;;;;;10.67;6.53;;;-0.10;99.90;;;;;;5096304;28;20206;-85
2022/03/07 04:19:45;;;;;;;10.03;6.20;;;-0.20;99.90;;;;;;5096105;28;20219;-84
2022/03/07 04:22:11;;;;;;;11.10;6.53;;;-0.10;99.90;;;;;;5096946;28;20220;-84
2022/03/07 04:24:36;;;;;;;9.47;6.50;;;-0.20;99.90;;;;;;5095673;28;20216;-85
2022/03/07 04:27:03;;;;;;;9.37;5.80;;;-0.30;99.90;;;;;;5094936;28;20197;-83
2022/03/07 04:29:28;;;;;;;12.57;7.23;;;-0.20;99.90;;;;;;5095353;28;20311;-84
2022/03/07 04:31:54;;;;;;;9.17;5.90;;;-0.20;99.90;;;;;;5096187;28;20954;-84
2022/03/07 04:34:20;;;;;;;8.03;5.83;;;-0.30;99.90;;;;;;5095408;28;20188;-82
2022/03/07 04:36:45;;;;;;;10.60;5.97;;;-0.30;99.90;;;;;;5096264;28;20252;-85
2022/03/07 04:39:11;;;;;;;8.23;5.77;;;-0.30;99.90;;;;;;5095254;28;20183;-85
2022/03/07 04:41:37;;;;;;;8.37;6.20;;;-0.30;99.90;;;;;;5096357;28;20198;-85
2022/03/07 04:44:03;;;;;;;7.30;5.40;;;-0.30;99.90;;;;;;5096335;28;20407;-85
2022/03/07 04:46:30;;;;;;;8.68;5.35;;;-0.40;99.90;;;;;;5094796;28;20487;-84
2022/03/07 04:48:56;;;;;;;9.90;6.47;;;-0.50;99.90;;;;;;5095067;28;20184;-85
2022/03/07 04:51:22;;;;;;;9.00;5.27;;;-0.50;99.90;;;;;;5095310;28;20187;-84
2022/03/07 04:53:47;;;;;;;7.17;5.90;;;-0.50;99.90;;;;;;5095727;28;20212;-85
2022/03/07 04:56:13;;;;;;;12.10;6.70;;;-0.50;99.90;;;;;;5096151;28;20223;-83
2022/03/07 04:58:39;;;;;;;10.00;6.97;;;-0.40;99.90;;;;;;5093267;28;20658;-82
2022/03/07 05:01:05;;;;;;;13.53;6.13;;;-0.40;99.90;;;;;;5093132;28;20190;-83
2022/03/07 05:03:31;;;;;;;10.80;6.70;;;-0.40;99.90;;;;;;5093048;28;20443;-84
2022/03/07 05:05:57;;;;;;;8.23;5.53;;;-0.40;99.90;;;;;;5092970;28;20511;-84
2022/03/07 05:08:22;;;;;;;7.80;5.57;;;-0.40;99.90;;;;;;5092619;28;20180;-85
2022/03/07 05:10:48;;;;;;;9.63;6.07;;;-0.40;99.90;;;;;;5092818;28;20425;-84
2022/03/07 05:13:14;;;;;;;7.73;5.57;;;-0.50;99.90;;;;;;5092789;28;20200;-84
2022/03/07 05:15:39;;;;;;;7.83;6.27;;;-0.50;99.90;;;;;;5092647;28;20261;-83
2022/03/07 05:18:06;;;;;;;9.00;6.70;;;-0.40;99.90;;;;;;5092530;28;20237;-83
2022/03/07 05:20:31;;;;;;;9.30;5.63;;;-0.50;99.90;;;;;;5093887;28;20176;-83
2022/03/07 05:22:57;;;;;;;14.43;6.47;;;-0.50;99.90;;;;;;5134655;22;20298;-81
2022/03/07 05:25:23;;;;;;;8.40;5.90;;;-0.50;99.90;;;;;;5093375;28;20227;-82
2022/03/07 05:27:49;;;;;;;9.60;5.60;;;-0.50;99.90;;;;;;5093245;28;20901;-82
2022/03/07 05:30:17;;;;;;;10.07;5.75;;;-0.50;99.90;;;;;;5093396;28;20180;-81
2022/03/07 05:32:47;;;;;;;9.32;6.30;;;-0.50;99.90;;;;;;5093378;28;20205;-82
2022/03/07 05:35:14;;;;;;;9.23;5.70;;;-0.50;99.90;;;;;;5093259;28;20660;-81
2022/03/07 05:37:40;;;;;;;9.80;5.60;;;-0.50;99.90;;;;;;5092851;28;20459;-82
2022/03/07 05:40:08;;;;;;;13.00;6.60;;;-0.50;99.90;;;;;;5093277;28;20411;-81
2022/03/07 05:42:34;;;;;;;11.83;7.03;;;-0.50;99.90;;;;;;5093002;28;20201;-82
2022/03/07 05:45:02;;;;;;;10.20;6.70;;;-0.50;99.90;;;;;;5091705;28;20421;-82
2022/03/07 05:47:27;;;;;;;8.45;6.15;;;-0.60;99.90;;;;;;5092601;28;20502;-82
2022/03/07 05:49:53;;;;;;;10.73;6.20;;;-0.70;99.90;;;;;;5093122;28;20708;-82
2022/03/07 05:52:18;;;;;;;10.60;5.90;;;-0.80;99.90;;;;;;5091691;28;20257;-82
2022/03/07 05:54:44;;;;;;;8.47;5.80;;;-0.80;99.90;;;;;;5092918;28;20181;-82
2022/03/07 05:57:10;;;;;;;10.20;5.17;;;-0.80;99.90;;;;;;5092487;28;20463;-82
2022/03/07 05:59:35;;;;;;;7.70;5.50;;;-0.90;99.90;;;;;;5091596;28;20172;-82
2022/03/07 06:02:01;;;;;;;9.87;5.67;;;-0.90;99.90;;;;;;5092722;28;20176;-82
2022/03/07 06:04:27;;;;;;;8.57;6.10;;;-0.80;99.90;;;;;;5091665;28;20180;-82
2022/03/07 06:06:52;;;;;;;9.43;6.60;;;-0.70;99.90;;;;;;5091072;28;21004;-82
2022/03/07 06:09:18;;;;;;;6.93;5.47;;;-0.80;99.90;;;;;;5092663;28;20613;-81
2022/03/07 06:11:43;;;;;;;8.17;5.90;;;-0.80;99.90;;;;;;5091517;28;20215;-82
2022/03/07 06:14:09;;;;;;;12.77;5.40;;;-0.70;99.90;;;;;;5092406;28;20554;-82
2022/03/07 06:16:34;;;;;;;10.70;5.80;;;-0.70;99.90;;;;;;5092047;28;20287;-82
2022/03/07 06:19:00;;;;;;;11.43;6.57;;;-0.70;99.90;;;;;;5092491;28;20199;-82
2022/03/07 06:21:26;;;;;;;9.83;6.73;;;-0.70;99.90;;;;;;5092583;28;20168;-81
2022/03/07 06:23:51;;;;;;;8.40;5.90;;;-0.70;99.90;;;;;;5092270;28;20208;-82
2022/03/07 06:26:17;;;;;;;8.80;5.87;;;-0.70;99.90;;;;;;5091371;28;20187;-81
2022/03/07 06:28:42;;;;;;;7.60;5.47;;;-0.70;99.90;;;;;;5092273;28;20187;-82
2022/03/07 06:31:08;;;;;;;6.93;4.70;;;-0.70;99.90;;;;;;5092228;28;20256;-82
2022/03/07 06:33:34;;;;;;;6.13;4.70;;;-0.60;99.90;;;;;;5092290;28;20725;-82
2022/03/07 06:35:59;;;;;;;6.73;4.40;;;-0.50;99.90;;;;;;5091797;28;20185;-82
2022/03/07 06:38:25;;;;;;;7.30;4.73;;;-0.50;99.90;;;;;;5091974;28;20195;-82
2022/03/07 06:40:51;;;;;;;7.43;5.73;;;-0.40;99.90;;;;;;5092178;28;20171;-82
2022/03/07 06:43:16;;;;;;;6.53;4.63;;;-0.30;99.90;;;;;;5090799;28;20280;-82
2022/03/07 06:45:42;;;;;;;5.67;3.87;;;-0.30;99.90;;;;;;5091949;28;20414;-82
2022/03/07 06:48:08;;;;;;;6.30;4.80;;;-0.20;99.90;;;;;;5091911;28;20642;-81
2022/03/07 06:50:33;;;;;;;8.53;4.70;;;-0.10;99.90;;;;;;5091976;28;20521;-82
2022/03/07 06:52:59;;;;;;;6.17;4.73;;;0.00;99.90;;;;;;5092005;28;20204;-82
2022/03/07 06:55:26;;;;;;;6.07;3.80;;;0.10;99.90;;;;;;5090777;28;20663;-81
2022/03/07 06:57:52;;;;;;;7.50;4.30;;;0.10;99.90;;;;;;5091682;28;20499;-81
2022/03/07 07:00:18;;;;;;;4.93;3.90;;;0.30;99.90;;;;;;5092178;28;20442;-82
2022/03/07 07:02:45;;;;;;;7.40;4.70;;;0.40;99.90;;;;;;5092062;28;21179;-81
2022/03/07 07:05:11;;;;;;;5.43;4.40;;;0.50;99.90;;;;;;5091993;28;20780;-82
2022/03/07 07:07:37;;;;;;;7.03;4.43;;;0.60;99.90;;;;;;5091468;28;20425;-81
2022/03/07 07:10:04;;;;;;;9.90;4.63;;;0.70;99.90;;;;;;5091903;28;20502;-82
2022/03/07 07:12:30;;;;;;;6.20;4.30;;;0.80;99.90;;;;;;5091734;28;20687;-82
2022/03/07 07:14:58;;;;;;;5.60;4.47;;;0.90;99.90;;;;;;5091663;28;20501;-82
2022/03/07 07:17:24;;;;;;;6.33;4.17;;;1.00;99.90;;;;;;5091207;28;20563;-82
2022/03/07 07:19:49;;;;;;;6.80;4.10;;;1.10;99.90;;;;;;5090301;28;20424;-82
2022/03/07 07:22:15;;;;;;;6.30;4.80;;;1.10;99.90;;;;;;5090454;28;20203;-82
2022/03/07 07:24:42;;;;;;;6.13;4.40;;;1.30;99.90;;;;;;5091723;28;20182;-81
2022/03/07 07:27:08;;;;;;;9.20;4.53;;;1.40;99.90;;;;;;5090222;28;20676;-82
2022/03/07 07:29:33;;;;;;;5.07;4.57;;;1.40;99.90;;;;;;5091605;28;20423;-82
2022/03/07 07:31:59;;;;;;;6.00;4.27;;;1.50;99.90;;;;;;5091591;28;20592;-82
2022/03/07 07:34:25;;;;;;;11.17;5.77;;;1.60;99.90;;;;;;5090307;28;20209;-82
2022/03/07 07:36:51;;;;;;;6.00;4.77;;;1.60;99.90;;;;;;5089956;28;20496;-82
2022/03/07 07:39:16;;;;;;;8.87;4.77;;;1.70;99.90;;;;;;5091573;28;20175;-82
2022/03/07 07:41:42;;;;;;;7.20;5.67;;;1.70;99.90;;;;;;5090213;28;20228;-82
2022/03/07 07:44:08;;;;;;;7.53;4.73;;;1.80;99.90;;;;;;5091745;28;20424;-82
2022/03/07 07:46:33;;;;;;;13.30;5.83;;;1.90;99.90;;;;;;5092234;28;20186;-82
2022/03/07 07:48:59;;;;;;;5.07;4.27;;;2.00;99.90;;;;;;5095085;28;20187;-82
2022/03/07 07:51:25;;;;;;;5.27;4.77;;;2.10;99.90;;;;;;5095291;28;20254;-82
2022/03/07 07:53:50;;;;;;;6.50;4.50;;;2.20;99.90;;;;;;5095199;28;20194;-82
2022/03/07 07:56:16;;;;;;;5.33;4.27;;;2.30;99.90;;;;;;5094912;28;20218;-82
2022/03/07 07:58:42;;;;;;;7.60;4.60;;;2.30;99.90;;;;;;5094986;28;20175;-82
2022/03/07 08:01:07;;;;;;;7.23;5.40;;;2.30;99.90;;;;;;5095170;28;20253;-82
2022/03/07 08:03:33;;;;;;;5.33;4.40;;;2.40;99.90;;;;;;5095130;28;20196;-82
2022/03/07 08:05:59;;;;;;;5.70;4.40;;;2.40;99.90;;;;;;5093820;28;20179;-82
2022/03/07 08:08:24;;;;;;;7.27;5.40;;;2.50;99.90;;;;;;5095832;28;20172;-82
2022/03/07 08:10:50;;;;;;;6.17;4.67;;;2.60;99.90;;;;;;5095387;28;20254;-81
2022/03/07 08:13:16;;;;;;;7.57;4.90;;;2.80;99.90;;;;;;5095333;28;20226;-82
2022/03/07 08:15:42;;;;;;;7.50;5.40;;;3.00;99.90;;;;;;5095335;28;20251;-82
2022/03/07 08:18:08;;;;;;;7.73;4.37;;;3.20;99.90;;;;;;5093752;28;20688;-82
2022/03/07 08:20:34;;;;;;;8.93;5.40;;;3.30;99.90;;;;;;5095070;28;20498;-82
2022/03/07 08:23:00;;;;;;;5.17;4.33;;;3.30;99.90;;;;;;5093335;28;21045;-83
2022/03/07 08:25:26;;;;;;;5.27;3.90;;;3.50;99.90;;;;;;5094444;28;20497;-82
2022/03/07 08:27:53;;;;;;;5.80;4.57;;;3.60;99.90;;;;;;5087258;28;20758;-84
2022/03/07 08:30:21;;;;;;;7.83;4.73;;;3.80;99.90;;;;;;5085754;28;20854;-83
2022/03/07 08:32:46;;;;;;;7.00;4.60;;;3.70;99.90;;;;;;5072541;28;20569;-83
2022/03/07 08:35:13;;;;;;;6.40;4.67;;;3.80;99.90;;;;;;5073977;28;20495;-84
2022/03/07 08:37:40;;;;;;;7.87;4.50;;;3.90;99.90;;;;;;5072324;28;20224;-84
2022/03/07 08:40:08;;;;;;;5.90;4.50;;;4.00;99.90;;;;;;5072605;28;20420;-83
2022/03/07 08:42:34;;;;;;;5.13;4.47;;;4.00;99.90;;;;;;5073723;28;20538;-84
2022/03/07 08:45:00;;;;;;;6.67;4.50;;;4.00;99.90;;;;;;5072466;28;20508;-84
2022/03/07 08:47:26;;;;;;;5.33;4.83;;;4.10;99.90;;;;;;5072274;28;20512;-83
2022/03/07 08:49:52;;;;;;;7.37;4.47;;;4.20;99.90;;;;;;5073696;28;20224;-83
2022/03/07 08:52:17;;;;;;;5.20;3.87;;;4.20;99.90;;;;;;5073768;28;20963;-83
2022/03/07 08:54:44;;;;;;;6.93;4.70;;;4.30;99.90;;;;;;5073668;28;20419;-82
2022/03/07 08:57:11;;;;;;;5.10;3.83;;;4.40;99.90;;;;;;5071517;28;20210;-82
2022/03/07 08:59:36;;;;;;;5.83;3.57;;;4.40;99.90;;;;;;5072139;28;20508;-83
2022/03/07 09:02:03;;;;;;;6.00;4.43;;;4.50;99.90;;;;;;5071687;28;20449;-84
2022/03/07 09:04:29;;;;;;;5.23;3.87;;;4.60;99.90;;;;;;5073483;28;20168;-84
2022/03/07 09:06:55;;;;;;;4.53;3.47;;;4.70;99.90;;;;;;5071696;28;20522;-82
2022/03/07 09:09:20;;;;;;;5.30;3.57;;;4.70;99.90;;;;;;5073829;28;20178;-83
2022/03/07 09:11:47;;;;;;;5.40;4.90;;;4.80;99.90;;;;;;5073184;28;20409;-82
2022/03/07 09:14:12;;;;;;;5.37;3.77;;;4.90;99.90;;;;;;5073568;28;20555;-81
2022/03/07 09:16:38;;;;;;;6.57;4.03;;;4.90;99.90;;;;;;5072673;28;20461;-83
2022/03/07 09:19:04;;;;;;;6.27;3.80;;;5.00;99.90;;;;;;5073118;28;20185;-81
2022/03/07 09:21:29;;;;;;;4.47;3.30;;;5.10;99.90;;;;;;5073021;28;20195;-83
2022/03/07 09:23:55;;;;;;;8.20;4.37;;;5.20;99.90;;;;;;5072732;28;20203;-81
2022/03/07 09:26:21;;;;;;;6.17;3.50;;;5.20;99.90;;;;;;5071277;28;20739;-83
2022/03/07 09:28:46;;;;;;;4.97;3.87;;;5.20;99.90;;;;;;5072587;28;20214;-83
2022/03/07 09:31:13;;;;;;;7.43;4.00;;;5.20;99.90;;;;;;5071598;28;20182;-82
2022/03/07 09:33:39;;;;;;;5.30;4.20;;;5.30;99.90;;;;;;5071061;28;20260;-83
2022/03/07 09:36:05;;;;;;;5.70;3.87;;;5.30;99.90;;;;;;5072913;28;20950;-83
2022/03/07 09:38:34;;;;;;;5.27;3.63;;;5.30;99.90;;;;;;5071125;28;20449;-85
2022/03/07 09:41:00;;;;;;;6.20;4.13;;;5.40;99.90;;;;;;5071588;28;20430;-85
2022/03/07 09:43:26;;;;;;;6.40;3.80;;;5.50;99.90;;;;;;5071692;28;20467;-85
2022/03/07 09:45:52;;;;;;;5.00;3.50;;;5.60;99.90;;;;;;5071366;28;20425;-84
2022/03/07 09:48:20;;;;;;;6.80;4.00;;;5.70;99.90;;;;;;5071500;28;20182;-85
2022/03/07 09:50:46;;;;;;;5.60;3.83;;;5.70;99.90;;;;;;5090150;28;20926;-82
2022/03/07 09:53:13;;;;;;;7.27;4.23;;;5.70;99.90;;;;;;5092850;28;20445;-83
2022/03/07 09:55:39;;;;;;;5.27;3.67;;;5.80;99.90;;;;;;5092542;28;20175;-82
2022/03/07 09:58:06;;;;;;;5.20;4.20;;;5.90;99.90;;;;;;5091247;28;20840;-83
2022/03/07 10:00:32;;;;;;;5.87;4.20;;;6.10;99.90;;;;;;5091448;28;20409;-82
2022/03/07 10:03:02;;;;;;;5.90;4.70;;;6.10;99.90;;;;;;5091344;28;20483;-83
2022/03/07 10:05:39;;;;;;;4.30;3.80;;;6.20;99.90;;;;;;5092401;28;20418;-82
2022/03/07 10:08:07;;;;;;;5.77;4.60;;;6.40;99.90;;;;;;5091123;28;20460;-83
2022/03/07 10:10:43;;;;;;;6.00;4.10;;;6.40;99.90;;;;;;5090796;28;20457;-83
2022/03/07 10:13:11;;;;;;;5.17;3.83;;;6.50;99.90;;;;;;5092468;28;20421;-83
2022/03/07 10:15:38;;;;;;;5.90;3.50;;;6.80;99.90;;;;;;5092329;28;20438;-82
2022/03/07 10:18:05;;;;;;;4.53;4.00;;;7.00;99.90;;;;;;5092015;28;20457;-83
2022/03/07 10:20:31;;;;;;;5.30;3.63;;;7.70;99.90;;;;;;5093915;28;20758;-82
2022/03/07 10:23:00;;;;;;;4.17;3.47;;;9.80;97.20;;;;;;5091519;28;20456;-83
2022/03/07 10:25:28;;;;;;;5.30;3.70;;;12.60;90.40;;;;;;5090884;28;20413;-83
2022/03/07 10:27:55;;;;;;;5.47;3.63;;;14.90;74.00;;;;;;5090676;28;20420;-83
2022/03/07 10:30:28;;;;;;;4.90;4.17;;;16.90;62.30;;;;;;5092136;28;20416;-84
2022/03/07 10:32:55;;;;;;;5.00;3.80;;;;;;;;;;5092183;28;20436;-84
2022/03/07 10:35:32;;;;;;;5.07;3.83;;;21.10;46.60;;;;;;5090769;28;20420;-84
2022/03/07 10:38:15;;;;;;;4.30;3.90;;;23.10;41.50;;;;;;5091910;28;20463;-84
2022/03/07 10:40:46;;;;;;;6.50;4.20;;;24.10;35.40;;;;;;5090804;28;20413;-84
2022/03/07 10:43:12;;;;;;;5.43;4.27;;;25.10;33.00;;;;;;5091967;28;20428;-84
2022/03/07 10:45:50;;;;;;;5.80;4.03;;;25.70;30.90;;;;;;5091879;28;20412;-84
2022/03/07 10:48:17;;;;;;;5.00;3.53;;;26.40;29.60;;;;;;5090582;28;20198;-84
2022/03/07 10:50:55;;;;;;;5.40;4.00;;;27.30;29.00;;;;;;5091965;28;20415;-84
2022/03/07 10:53:21;;;;;;;4.87;3.90;;;27.50;27.70;;;;;;5090528;28;20431;-84
2022/03/07 10:55:59;;;;;;;4.57;3.70;;;28.20;27.10;;;;;;5090472;28;20428;-84
2022/03/07 10:58:26;;;;;;;5.03;4.00;;;28.20;25.70;;;;;;5091639;28;20451;-84
2022/03/07 11:00:58;;;;;;;4.70;4.00;;;28.80;25.90;;;;;;5090560;28;20409;-84
2022/03/07 11:03:28;;;;;;;5.27;3.90;;;29.00;24.80;;;;;;5092277;28;20436;-85
2022/03/07 11:05:54;;;;;;;4.20;3.70;;;29.60;24.70;;;;;;5090251;28;20416;-82
2022/03/07 11:08:21;;;;;;;4.30;3.70;;;29.70;24.30;;;;;;5091670;28;20415;-83
2022/03/07 11:10:49;;;;;;;4.67;4.10;;;29.70;24.80;;;;;;5090493;28;20177;-82
2022/03/07 11:13:16;;;;;;;4.70;3.73;;;29.70;23.90;;;;;;5092209;28;20870;-82
2022/03/07 11:15:44;;;;;;;4.77;4.00;;;28.20;23.30;;;;;;5090305;28;20423;-82
2022/03/07 11:18:15;;;;;;;8.80;3.87;;;27.00;24.40;;;;;;5091379;28;20497;-82
2022/03/07 11:20:44;;;;;;;5.57;4.40;;;27.60;24.60;;;;;;5090376;28;20416;-83
2022/03/07 11:23:18;;;;;;;4.20;3.67;;;27.80;24.60;;;;;;5095509;28;20455;-83
2022/03/07 11:25:45;;;;;;;4.57;4.07;;;28.40;24.70;;;;;;5115352;22;20492;-67
2022/03/07 11:28:12;;;;;;;4.13;3.63;;;28.70;24.30;;;;;;5094191;28;20794;-67
2022/03/07 11:30:41;;;;;;;4.07;3.67;;;28.90;24.20;;;;;;5094279;28;20424;-68
2022/03/07 11:33:18;;;;;;;5.03;3.70;;;29.10;23.50;;;;;;5094187;28;20436;-67
2022/03/07 11:35:49;;;;;;;4.43;3.97;;;29.40;23.30;;;;;;5094116;28;20423;-68
2022/03/07 11:38:21;;;;;;;4.30;3.90;;;29.30;23.50;;;;;;5093913;28;20558;-68
2022/03/07 11:41:12;;;;;;;4.73;3.33;;;29.00;23.40;;;;;;5094113;28;20474;-67
2022/03/07 11:43:49;;;;;;;4.60;3.90;;;28.40;23.20;;;;;;5094090;28;20424;-67
2022/03/07 11:46:33;;;;;;;4.90;3.47;;;28.30;23.20;;;;;;5093806;28;20800;-67
2022/03/07 11:48:59;;;;;;;5.90;3.80;;;28.70;23.00;;;;;;5094047;28;20884;-67
2022/03/07 11:51:27;;;;;;;4.37;3.60;;;28.50;23.30;;;;;;5093843;28;20460;-67
2022/03/07 11:53:55;;;;;;;5.10;3.63;;;29.00;23.50;;;;;;5093808;28;20934;-67
2022/03/07 11:56:24;;;;;;;6.43;3.80;;;27.90;23.10;;;;;;5093384;28;20432;-67
2022/03/07 11:58:54;;;;;;;5.93;3.80;;;27.60;23.50;;;;;;5093983;28;20938;-68
2022/03/07 12:01:22;;;;;;;4.20;3.20;;;27.40;23.50;;;;;;5093655;28;20420;-68
2022/03/07 12:03:48;;;;;;;3.83;3.43;;;27.10;23.70;;;;;;5093860;28;20405;-67
2022/03/07 12:06:17;;;;;;;5.20;4.03;;;26.90;23.90;;;;;;5093275;28;20467;-67
2022/03/07 12:08:49;;;;;;;4.43;3.57;;;27.80;23.80;;;;;;5093435;28;20455;-67
2022/03/07 12:11:30;;;;;;;4.50;3.67;;;28.70;23.80;;;;;;5093432;28;20419;-67
2022/03/07 12:14:05;;;;;;;4.50;3.40;;;29.10;24.60;;;;;;5093719;28;20949;-68
2022/03/07 12:16:37;;;;;;;6.50;3.73;;;29.80;23.70;;;;;;5092958;28;20463;-67
2022/03/07 12:19:07;;;;;;;4.27;3.30;;;28.80;21.80;;;;;;5093444;28;20853;-67
2022/03/07 12:21:34;;;;;;;4.60;3.50;;;26.80;22.50;;;;;;5093324;28;20466;-67
2022/03/07 12:24:00;;;;;;;3.83;3.43;;;24.80;23.90;;;;;;5093338;28;20419;-68
2022/03/07 12:26:25;;;;;;;4.93;3.60;;;24.10;23.50;;;;;;5092705;28;20460;-67
2022/03/07 12:28:51;;;;;;;5.40;4.53;;;22.80;24.00;;;;;;5093223;28;20205;-67
2022/03/07 12:31:18;;;;;;;4.50;3.20;;;21.90;24.10;;;;;;5093035;28;20186;-67
2022/03/07 12:33:48;;;;;;;6.30;3.53;;;20.90;24.60;;;;;;5092810;28;20265;-67
2022/03/07 12:36:15;;;;;;;3.37;2.97;;;20.70;25.10;;;;;;5092817;28;20446;-67
2022/03/07 12:38:50;;;;;;;4.30;3.80;;;20.40;25.50;;;;;;5092797;28;20557;-67
2022/03/07 12:41:19;;;;;;;3.80;3.00;;;20.50;25.80;;;;;;5092973;28;20465;-67
2022/03/07 12:43:50;;;;;;;4.63;3.40;;;21.00;26.10;;;;;;5092857;28;20409;-67
2022/03/07 12:46:16;;;;;;;4.80;3.70;;;21.70;25.30;;;;;;5092890;28;20436;-67
2022/03/07 12:48:45;;;;;;;6.67;3.80;;;22.80;25.80;;;;;;5092562;28;20416;-68
2022/03/07 12:51:13;;;;;;;3.97;3.23;;;25.10;26.30;;;;;;5092735;28;20528;-67